Flight Track Log - Related Links

Times and Time Zones

All times are in EDT time to prevent confusion due to time zone crossing. See the N165RD flight status page for this flight to view local times or setup timezone preferences in your user account.


Time Position Orientation Groundspeed Altitude Reporting Facility
EDT Latitude Longitude Course Direction KTS MPH feet Rate Location/Type
Tue 10:57:28 PM 48.1231 -103.6636 101° East 231 266 8,700  Level Salt Lake Center
Tue 10:58:30 PM 48.1022 -103.5697 108° East 235 270 11,400 2,683 Climbing Salt Lake Center
Tue 10:59:31 PM 48.0881 -103.4700 102° East 240 276 14,200 2,361 Climbing Salt Lake Center
Tue 11:00:32 PM 48.0739 -103.3692 102° East 243 280 16,200 2,244 Climbing Salt Lake Center
Tue 11:01:34 PM 48.0561 -103.2439 102° East 250 288 18,800 2,146 Climbing Salt Lake Center
Tue 11:02:00 PM 48.0653 -102.9808 101° East  Level FlightAware Approximate
Tue 11:02:35 PM 48.0400 -103.1375 103° East 256 295 20,600  Level Salt Lake Center
Tue 11:03:36 PM 48.0244 -103.0283 102° East 262 302 22,300 1,672 Climbing Salt Lake Center
Tue 11:04:37 PM 48.0083 -102.9164 102° East 268 308 24,000 1,537 Climbing Salt Lake Center
Tue 11:05:37 PM 47.9911 -102.8083 103° East 271 312 25,400 1,240 Climbing Minneapolis Center
Tue 11:06:38 PM 47.9736 -102.6919 103° East 277 319 26,500 1,180 Climbing Minneapolis Center
Tue 11:07:39 PM 47.9533 -102.5672 104° East 299 344 27,800 1,082 Climbing Minneapolis Center
Tue 11:08:40 PM 47.9358 -102.4444 102° East 301 346 28,700 590 Climbing Minneapolis Center
Tue 11:09:41 PM 47.9178 -102.3161 102° East 310 357 29,000 148 Climbing Minneapolis Center
Tue 11:10:42 PM 47.8956 -102.1733 103° East 339 390 29,000  Level Minneapolis Center
Tue 11:11:43 PM 47.8697 -102.0236 104° East 363 418 29,000  Level Minneapolis Center
Tue 11:12:44 PM 47.8453 -101.8692 103° East 377 434 29,000  Level Minneapolis Center
Tue 11:13:45 PM 47.8203 -101.7128 103° East 385 443 29,000 -49 Level Minneapolis Center
Tue 11:14:46 PM 47.7953 -101.5550 103° East 389 448 28,900  Descending Minneapolis Center
Tue 11:15:47 PM 47.7639 -101.3633 104° East 396 456 29,000 49 Climbing Minneapolis Center
Tue 11:16:48 PM 47.7411 -101.2031 102° East 396 456 29,000  Level Minneapolis Center
Tue 11:17:48 PM 47.7150 -101.0419 103° East 400 460 29,000  Level Minneapolis Center
Tue 11:18:49 PM 47.6853 -100.8739 105° East 403 464 29,000  Level Minneapolis Center
Tue 11:19:50 PM 47.6606 -100.7100 103° East 407 468 29,000 -49 Level Minneapolis Center
Tue 11:20:51 PM 47.6292 -100.5475 106° East 409 471 28,900  Descending Minneapolis Center
Tue 11:21:52 PM 47.6028 -100.3856 104° East 407 468 29,000 49 Climbing Minneapolis Center
Tue 11:22:53 PM 47.5728 -100.2208 105° East 413 475 29,000 -33 Level Minneapolis Center
Tue 11:24:00 PM 47.5539 -100.1003 103° East  Level FlightAware Approximate
Tue 11:24:55 PM 47.5167 -99.8981 103° East 407 468 28,900  Level Minneapolis Center
Tue 11:25:56 PM 47.4872 -99.7369 105° East 408 470 29,000 49 Climbing Minneapolis Center
Tue 11:26:57 PM 47.4581 -99.5772 105° East 405 466 29,000  Level Minneapolis Center
Tue 11:27:57 PM 47.4292 -99.4194 105° East 402 463 29,000  Level Minneapolis Center
Tue 11:28:58 PM 47.4000 -99.2597 105° East 404 465 29,000  Level Minneapolis Center
Tue 11:29:59 PM 47.3706 -99.1019 105° East 402 463 29,000  Level Minneapolis Center
Tue 11:31:00 PM 47.3408 -98.9444 106° East 401 461 29,000  Level Minneapolis Center
Tue 11:32:01 PM 47.3053 -98.7553 105° East 402 463 29,000 -50 Level Minneapolis Center
Tue 11:33:01 PM 47.2764 -98.6000 105° East 398 458 28,900 -50 Descending Minneapolis Center
Tue 11:34:02 PM 47.2472 -98.4472 106° East 394 453 28,900 49 Level Minneapolis Center
Tue 11:35:03 PM 47.2183 -98.2958 106° East 390 449 29,000 -298 Climbing Minneapolis Center
Tue 11:36:03 PM 47.1883 -98.1458 106° East 388 447 28,300 -1,636 Descending Minneapolis Center
Tue 11:37:04 PM 47.1569 -97.9856 106° East 406 467 25,700 -2,213 Descending Minneapolis Center
Tue 11:38:05 PM 47.1181 -97.8272 110° East 416 479 23,800 -2,182 Descending Minneapolis Center
Tue 11:39:05 PM 47.0739 -97.6811 114° Southeast 398 458 21,300 -2,727 Descending Minneapolis Center
Tue 11:40:06 PM 47.0239 -97.5106 113° Southeast 398 458 18,300 -2,607 Descending Minneapolis Center
Tue 11:41:07 PM 46.9878 -97.3875 113° Southeast 347 399 16,000 -2,975 Descending Minneapolis Center
Tue 11:42:07 PM 46.9481 -97.2536 113° Southeast 345 397 12,300 -3,521 Descending Minneapolis Center
Tue 11:43:08 PM 46.9075 -97.1303 116° Southeast 327 376 8,900 -3,273 Descending Minneapolis Center
Tue 11:44:08 PM 46.8669 -97.0256 119° Southeast 310 357 5,700 -2,529 Descending Minneapolis Center
Tue 11:45:09 PM 46.8311 -96.9244 117° Southeast 266 306 3,800 -1,869 Descending Minneapolis Center

Login

Don't have an account? Register now (free) for customized features, flight alerts, and more!